sensor_id;sensor_type;location;lat;lon;timestamp;pressure;altitude;pressure_sealevel;temperature;humidity
67015;BME280;1033;52.560;13.374;2022-08-19T00:02:05;100421.63;;;20.85;98.32
67015;BME280;1033;52.560;13.374;2022-08-19T00:04:35;100415.03;;;20.86;98.51
67015;BME280;1033;52.560;13.374;2022-08-19T00:07:07;100414.44;;;20.94;97.93
67015;BME280;1033;52.560;13.374;2022-08-19T00:09:36;100413.59;;;20.94;97.37
67015;BME280;1033;52.560;13.374;2022-08-19T00:12:06;100413.34;;;20.90;97.52
67015;BME280;1033;52.560;13.374;2022-08-19T00:14:35;100417.97;;;21.00;97.06
67015;BME280;1033;52.560;13.374;2022-08-19T00:17:07;100434.78;;;20.93;97.30
67015;BME280;1033;52.560;13.374;2022-08-19T00:19:37;100435.00;;;21.07;96.88
67015;BME280;1033;52.560;13.374;2022-08-19T00:22:08;100420.81;;;21.39;94.69
67015;BME280;1033;52.560;13.374;2022-08-19T00:24:37;100430.78;;;21.30;93.88
67015;BME280;1033;52.560;13.374;2022-08-19T00:27:17;100443.44;;;21.25;93.35
67015;BME280;1033;52.560;13.374;2022-08-19T00:29:53;100445.84;;;21.81;90.99
67015;BME280;1033;52.560;13.374;2022-08-19T00:32:22;100442.38;;;21.65;90.00
67015;BME280;1033;52.560;13.374;2022-08-19T00:34:53;100440.66;;;21.75;90.83
67015;BME280;1033;52.560;13.374;2022-08-19T00:37:24;100440.53;;;21.56;90.36
67015;BME280;1033;52.560;13.374;2022-08-19T00:39:54;100433.44;;;21.40;92.36
67015;BME280;1033;52.560;13.374;2022-08-19T00:42:24;100429.59;;;21.41;92.01
67015;BME280;1033;52.560;13.374;2022-08-19T00:44:55;100422.50;;;21.35;93.09
67015;BME280;1033;52.560;13.374;2022-08-19T00:47:25;100422.53;;;21.30;92.86
67015;BME280;1033;52.560;13.374;2022-08-19T00:49:57;100410.34;;;21.41;92.48
67015;BME280;1033;52.560;13.374;2022-08-19T00:52:32;100412.63;;;21.29;93.88
67015;BME280;1033;52.560;13.374;2022-08-19T00:55:05;100423.06;;;21.71;91.91
67015;BME280;1033;52.560;13.374;2022-08-19T00:57:40;100415.06;;;22.08;88.09
67015;BME280;1033;52.560;13.374;2022-08-19T01:00:15;100429.56;;;21.85;89.00
67015;BME280;1033;52.560;13.374;2022-08-19T01:02:47;100420.69;;;21.59;90.93
67015;BME280;1033;52.560;13.374;2022-08-19T01:05:22;100423.47;;;21.54;91.01
67015;BME280;1033;52.560;13.374;2022-08-19T01:07:54;100424.09;;;21.41;92.06
67015;BME280;1033;52.560;13.374;2022-08-19T01:10:29;100424.44;;;21.34;92.66
67015;BME280;1033;52.560;13.374;2022-08-19T01:13:04;100424.22;;;21.20;92.77
67015;BME280;1033;52.560;13.374;2022-08-19T01:15:40;100419.25;;;21.22;92.10
67015;BME280;1033;52.560;13.374;2022-08-19T01:18:14;100430.50;;;21.31;92.42
67015;BME280;1033;52.560;13.374;2022-08-19T01:20:44;100425.31;;;21.24;92.81
67015;BME280;1033;52.560;13.374;2022-08-19T01:23:16;100435.09;;;21.41;93.17
67015;BME280;1033;52.560;13.374;2022-08-19T01:25:48;100435.28;;;21.54;92.20
67015;BME280;1033;52.560;13.374;2022-08-19T01:28:21;100438.16;;;21.39;91.95
67015;BME280;1033;52.560;13.374;2022-08-19T01:31:12;100436.31;;;21.24;92.88
67015;BME280;1033;52.560;13.374;2022-08-19T01:33:56;100451.69;;;21.31;94.01
67015;BME280;1033;52.560;13.374;2022-08-19T01:36:31;100456.53;;;21.49;92.71
67015;BME280;1033;52.560;13.374;2022-08-19T01:39:07;100453.31;;;21.32;92.88
67015;BME280;1033;52.560;13.374;2022-08-19T01:41:38;100456.06;;;21.37;92.35
67015;BME280;1033;52.560;13.374;2022-08-19T01:44:08;100437.94;;;21.25;93.93
67015;BME280;1033;52.560;13.374;2022-08-19T01:46:47;100441.69;;;21.45;92.74
67015;BME280;1033;52.560;13.374;2022-08-19T01:49:21;100452.16;;;21.48;93.27
67015;BME280;1033;52.560;13.374;2022-08-19T01:51:50;100451.44;;;21.27;94.32
67015;BME280;1033;52.560;13.374;2022-08-19T01:54:23;100458.84;;;21.32;95.22
67015;BME280;1033;52.560;13.374;2022-08-19T01:57:01;100463.13;;;21.92;90.13
67015;BME280;1033;52.560;13.374;2022-08-19T01:59:32;100471.94;;;21.50;91.85
67015;BME280;1033;52.560;13.374;2022-08-19T02:02:05;100459.91;;;21.36;93.58
67015;BME280;1033;52.560;13.374;2022-08-19T02:04:37;100459.22;;;21.05;96.59
67015;BME280;1033;52.560;13.374;2022-08-19T02:07:07;100458.59;;;21.23;97.80
67015;BME280;1033;52.560;13.374;2022-08-19T02:09:38;100443.59;;;20.90;99.47
67015;BME280;1033;52.560;13.374;2022-08-19T02:12:07;100433.25;;;20.62;100.00
67015;BME280;1033;52.560;13.374;2022-08-19T02:14:37;100413.22;;;20.51;100.00
67015;BME280;1033;52.560;13.374;2022-08-19T02:17:06;100401.16;;;20.42;100.00
67015;BME280;1033;52.560;13.374;2022-08-19T02:19:35;100409.06;;;20.54;100.00
67015;BME280;1033;52.560;13.374;2022-08-19T02:22:07;100391.00;;;20.43;100.00
67015;BME280;1033;52.560;13.374;2022-08-19T02:24:37;100361.31;;;20.24;100.00
67015;BME280;1033;52.560;13.374;2022-08-19T02:27:07;100353.91;;;20.20;100.00
67015;BME280;1033;52.560;13.374;2022-08-19T02:29:36;100342.94;;;20.15;100.00
67015;BME280;1033;52.560;13.374;2022-08-19T02:32:05;100330.56;;;20.17;100.00
67015;BME280;1033;52.560;13.374;2022-08-19T02:34:35;100330.59;;;20.12;100.00
67015;BME280;1033;52.560;13.374;2022-08-19T02:37:04;100327.84;;;20.12;100.00
67015;BME280;1033;52.560;13.374;2022-08-19T02:39:33;100318.78;;;20.12;100.00
67015;BME280;1033;52.560;13.374;2022-08-19T02:42:03;100336.09;;;20.12;100.00
67015;BME280;1033;52.560;13.374;2022-08-19T02:44:32;100337.44;;;20.10;100.00
67015;BME280;1033;52.560;13.374;2022-08-19T02:47:01;100344.91;;;20.04;100.00
67015;BME280;1033;52.560;13.374;2022-08-19T02:49:31;100352.56;;;20.07;100.00
67015;BME280;1033;52.560;13.374;2022-08-19T02:52:01;100349.81;;;20.07;100.00
67015;BME280;1033;52.560;13.374;2022-08-19T02:54:30;100344.06;;;20.09;100.00
67015;BME280;1033;52.560;13.374;2022-08-19T02:56:59;100344.06;;;20.14;100.00
67015;BME280;1033;52.560;13.374;2022-08-19T02:59:32;100344.34;;;20.07;100.00
67015;BME280;1033;52.560;13.374;2022-08-19T03:02:02;100354.75;;;20.10;100.00
67015;BME280;1033;52.560;13.374;2022-08-19T03:04:31;100355.06;;;20.04;100.00
67015;BME280;1033;52.560;13.374;2022-08-19T03:07:00;100350.91;;;20.11;100.00
67015;BME280;1033;52.560;13.374;2022-08-19T03:09:37;100353.66;;;20.16;100.00
67015;BME280;1033;52.560;13.374;2022-08-19T03:12:07;100365.19;;;20.13;100.00
67015;BME280;1033;52.560;13.374;2022-08-19T03:14:38;100362.97;;;20.15;100.00
67015;BME280;1033;52.560;13.374;2022-08-19T03:17:08;100363.00;;;20.05;100.00
67015;BME280;1033;52.560;13.374;2022-08-19T03:19:37;100364.13;;;20.04;100.00
67015;BME280;1033;52.560;13.374;2022-08-19T03:22:06;100362.47;;;20.03;100.00
67015;BME280;1033;52.560;13.374;2022-08-19T03:24:35;100349.28;;;20.00;100.00
67015;BME280;1033;52.560;13.374;2022-08-19T03:27:05;100340.50;;;19.98;100.00
67015;BME280;1033;52.560;13.374;2022-08-19T03:29:38;100344.09;;;19.99;100.00
67015;BME280;1033;52.560;13.374;2022-08-19T03:32:11;100343.53;;;19.91;100.00
67015;BME280;1033;52.560;13.374;2022-08-19T03:34:59;100338.88;;;19.87;100.00
67015;BME280;1033;52.560;13.374;2022-08-19T03:37:28;100342.72;;;19.86;100.00
67015;BME280;1033;52.560;13.374;2022-08-19T03:39:57;100346.59;;;19.80;100.00
67015;BME280;1033;52.560;13.374;2022-08-19T03:42:26;100343.28;;;19.83;100.00
67015;BME280;1033;52.560;13.374;2022-08-19T03:45:16;100339.44;;;19.84;100.00
67015;BME280;1033;52.560;13.374;2022-08-19T03:47:47;100343.78;;;19.90;100.00
67015;BME280;1033;52.560;13.374;2022-08-19T03:50:16;100344.91;;;19.89;100.00
67015;BME280;1033;52.560;13.374;2022-08-19T03:52:49;100357.53;;;19.95;100.00
67015;BME280;1033;52.560;13.374;2022-08-19T03:55:19;100362.19;;;19.94;100.00
67015;BME280;1033;52.560;13.374;2022-08-19T03:57:48;100358.09;;;19.92;100.00
67015;BME280;1033;52.560;13.374;2022-08-19T04:00:19;100350.94;;;19.91;100.00
67015;BME280;1033;52.560;13.374;2022-08-19T04:02:48;100356.44;;;19.96;100.00
67015;BME280;1033;52.560;13.374;2022-08-19T04:05:27;100345.72;;;19.94;100.00
67015;BME280;1033;52.560;13.374;2022-08-19T04:07:57;100336.13;;;19.92;100.00
67015;BME280;1033;52.560;13.374;2022-08-19T04:10:26;100338.28;;;20.00;100.00
67015;BME280;1033;52.560;13.374;2022-08-19T04:12:56;100336.13;;;19.97;100.00
67015;BME280;1033;52.560;13.374;2022-08-19T04:15:27;100342.69;;;19.96;100.00
67015;BME280;1033;52.560;13.374;2022-08-19T04:17:56;100347.09;;;20.02;100.00
67015;BME280;1033;52.560;13.374;2022-08-19T04:20:25;100342.94;;;20.10;100.00
67015;BME280;1033;52.560;13.374;2022-08-19T04:22:56;100349.56;;;20.09;100.00
67015;BME280;1033;52.560;13.374;2022-08-19T04:25:25;100355.00;;;20.19;100.00
67015;BME280;1033;52.560;13.374;2022-08-19T04:27:54;100368.47;;;20.15;100.00
67015;BME280;1033;52.560;13.374;2022-08-19T04:30:23;100370.94;;;20.27;100.00
67015;BME280;1033;52.560;13.374;2022-08-19T04:32:53;100365.72;;;20.15;100.00
67015;BME280;1033;52.560;13.374;2022-08-19T04:35:22;100373.13;;;20.25;100.00
67015;BME280;1033;52.560;13.374;2022-08-19T04:37:52;100369.53;;;20.29;100.00
67015;BME280;1033;52.560;13.374;2022-08-19T04:40:21;100366.81;;;20.24;100.00
67015;BME280;1033;52.560;13.374;2022-08-19T04:43:07;100352.53;;;20.22;100.00
67015;BME280;1033;52.560;13.374;2022-08-19T04:45:42;100358.56;;;20.19;100.00
67015;BME280;1033;52.560;13.374;2022-08-19T04:48:13;100378.09;;;20.18;100.00
67015;BME280;1033;52.560;13.374;2022-08-19T04:50:56;100367.38;;;20.21;100.00
67015;BME280;1033;52.560;13.374;2022-08-19T04:53:27;100355.28;;;20.22;100.00
67015;BME280;1033;52.560;13.374;2022-08-19T04:56:08;100362.44;;;20.23;100.00
67015;BME280;1033;52.560;13.374;2022-08-19T04:58:39;100363.53;;;20.22;100.00
67015;BME280;1033;52.560;13.374;2022-08-19T05:01:12;100366.81;;;20.24;100.00
67015;BME280;1033;52.560;13.374;2022-08-19T05:03:43;100363.50;;;20.27;100.00
67015;BME280;1033;52.560;13.374;2022-08-19T05:06:15;100359.38;;;20.30;100.00
67015;BME280;1033;52.560;13.374;2022-08-19T05:08:45;100369.00;;;20.43;100.00
67015;BME280;1033;52.560;13.374;2022-08-19T05:11:18;100374.47;;;21.07;97.44
67015;BME280;1033;52.560;13.374;2022-08-19T05:13:53;100360.59;;;21.66;91.96
67015;BME280;1033;52.560;13.374;2022-08-19T05:16:24;100356.03;;;22.14;89.22
67015;BME280;1033;52.560;13.374;2022-08-19T05:18:55;100359.72;;;22.04;88.88
67015;BME280;1033;52.560;13.374;2022-08-19T05:21:43;100343.91;;;21.18;93.43
67015;BME280;1033;52.560;13.374;2022-08-19T05:24:30;100340.13;;;20.99;95.76
67015;BME280;1033;52.560;13.374;2022-08-19T05:27:02;100336.00;;;20.97;96.81
67015;BME280;1033;52.560;13.374;2022-08-19T05:29:33;100335.13;;;21.06;96.08
67015;BME280;1033;52.560;13.374;2022-08-19T05:32:05;100336.69;;;21.28;94.94
67015;BME280;1033;52.560;13.374;2022-08-19T05:34:38;100333.97;;;21.22;95.23
67015;BME280;1033;52.560;13.374;2022-08-19T05:37:08;100333.56;;;21.39;94.10
67015;BME280;1033;52.560;13.374;2022-08-19T05:39:38;100330.56;;;21.36;94.56
67015;BME280;1033;52.560;13.374;2022-08-19T05:42:11;100328.88;;;21.40;94.51
67015;BME280;1033;52.560;13.374;2022-08-19T05:44:43;100330.75;;;21.49;92.80
67015;BME280;1033;52.560;13.374;2022-08-19T05:47:13;100326.50;;;21.62;92.90
67015;BME280;1033;52.560;13.374;2022-08-19T05:49:44;100332.78;;;21.67;92.07
67015;BME280;1033;52.560;13.374;2022-08-19T05:52:15;100337.88;;;21.79;91.75
67015;BME280;1033;52.560;13.374;2022-08-19T05:54:46;100336.81;;;21.75;91.06
67015;BME280;1033;52.560;13.374;2022-08-19T05:57:18;100341.97;;;21.87;91.32
67015;BME280;1033;52.560;13.374;2022-08-19T05:59:47;100341.66;;;21.88;91.22
67015;BME280;1033;52.560;13.374;2022-08-19T06:02:25;100342.31;;;22.09;89.54
67015;BME280;1033;52.560;13.374;2022-08-19T06:04:55;100345.19;;;22.23;88.92
67015;BME280;1033;52.560;13.374;2022-08-19T06:07:25;100354.53;;;22.50;87.77
67015;BME280;1033;52.560;13.374;2022-08-19T06:09:55;100349.75;;;22.56;87.29
67015;BME280;1033;52.560;13.374;2022-08-19T06:12:28;100353.94;;;22.53;87.32
67015;BME280;1033;52.560;13.374;2022-08-19T06:14:59;100363.38;;;22.24;88.69
67015;BME280;1033;52.560;13.374;2022-08-19T06:17:30;100361.78;;;22.41;87.27
67015;BME280;1033;52.560;13.374;2022-08-19T06:20:01;100369.53;;;22.39;88.25
67015;BME280;1033;52.560;13.374;2022-08-19T06:22:31;100367.78;;;22.25;88.47
67015;BME280;1033;52.560;13.374;2022-08-19T06:25:00;100359.41;;;22.35;87.17
67015;BME280;1033;52.560;13.374;2022-08-19T06:27:29;100364.03;;;22.39;87.40
67015;BME280;1033;52.560;13.374;2022-08-19T06:30:00;100356.38;;;22.36;88.29
67015;BME280;1033;52.560;13.374;2022-08-19T06:32:30;100357.41;;;22.40;87.80
67015;BME280;1033;52.560;13.374;2022-08-19T06:35:10;100355.38;;;22.51;87.37
67015;BME280;1033;52.560;13.374;2022-08-19T06:37:42;100354.63;;;22.64;87.25
67015;BME280;1033;52.560;13.374;2022-08-19T06:40:12;100356.16;;;22.75;85.40
67015;BME280;1033;52.560;13.374;2022-08-19T06:42:41;100356.63;;;22.82;85.23
67015;BME280;1033;52.560;13.374;2022-08-19T06:45:21;100367.53;;;22.92;84.90
67015;BME280;1033;52.560;13.374;2022-08-19T06:47:51;100371.13;;;23.12;84.17
67015;BME280;1033;52.560;13.374;2022-08-19T06:50:25;100377.69;;;23.16;82.98
67015;BME280;1033;52.560;13.374;2022-08-19T06:52:54;100385.97;;;22.97;83.24
67015;BME280;1033;52.560;13.374;2022-08-19T06:55:24;100389.53;;;22.98;83.81
67015;BME280;1033;52.560;13.374;2022-08-19T06:58:02;100385.97;;;23.16;83.38
67015;BME280;1033;52.560;13.374;2022-08-19T07:00:31;100384.03;;;22.98;84.17
67015;BME280;1033;52.560;13.374;2022-08-19T07:03:01;100395.25;;;22.82;85.30
67015;BME280;1033;52.560;13.374;2022-08-19T07:05:41;100398.25;;;23.05;84.00
67015;BME280;1033;52.560;13.374;2022-08-19T07:08:12;100407.00;;;23.12;83.68
67015;BME280;1033;52.560;13.374;2022-08-19T07:10:46;100410.38;;;23.09;83.79
67015;BME280;1033;52.560;13.374;2022-08-19T07:13:16;100410.03;;;22.91;83.80
67015;BME280;1033;52.560;13.374;2022-08-19T07:15:46;100411.19;;;22.85;84.76
67015;BME280;1033;52.560;13.374;2022-08-19T07:18:19;100411.31;;;22.75;84.92
67015;BME280;1033;52.560;13.374;2022-08-19T07:20:50;100406.69;;;22.71;86.21
67015;BME280;1033;52.560;13.374;2022-08-19T07:23:19;100402.75;;;22.77;85.18
67015;BME280;1033;52.560;13.374;2022-08-19T07:25:49;100403.19;;;22.89;85.43
67015;BME280;1033;52.560;13.374;2022-08-19T07:28:19;100400.66;;;22.92;84.96
67015;BME280;1033;52.560;13.374;2022-08-19T07:30:51;100392.53;;;23.01;84.55
67015;BME280;1033;52.560;13.374;2022-08-19T07:33:21;100398.38;;;23.18;83.51
67015;BME280;1033;52.560;13.374;2022-08-19T07:35:55;100402.84;;;23.33;83.83
67015;BME280;1033;52.560;13.374;2022-08-19T07:38:25;100415.22;;;23.17;83.78
67015;BME280;1033;52.560;13.374;2022-08-19T07:40:54;100414.75;;;23.10;84.00
67015;BME280;1033;52.560;13.374;2022-08-19T07:43:23;100414.09;;;23.18;84.11
67015;BME280;1033;52.560;13.374;2022-08-19T07:46:01;100420.97;;;23.20;84.62
67015;BME280;1033;52.560;13.374;2022-08-19T07:48:30;100430.56;;;23.47;81.87
67015;BME280;1033;52.560;13.374;2022-08-19T07:51:04;100430.53;;;23.28;82.92
67015;BME280;1033;52.560;13.374;2022-08-19T07:53:37;100431.34;;;23.28;83.43
67015;BME280;1033;52.560;13.374;2022-08-19T07:56:06;100429.78;;;23.41;83.26
67015;BME280;1033;52.560;13.374;2022-08-19T07:58:41;100430.38;;;23.38;82.94
67015;BME280;1033;52.560;13.374;2022-08-19T08:01:14;100428.63;;;23.47;81.77
67015;BME280;1033;52.560;13.374;2022-08-19T08:03:44;100435.31;;;23.41;82.18
67015;BME280;1033;52.560;13.374;2022-08-19T08:06:34;100442.84;;;23.35;82.47
67015;BME280;1033;52.560;13.374;2022-08-19T08:09:25;100442.63;;;23.32;82.94
67015;BME280;1033;52.560;13.374;2022-08-19T08:11:59;100437.84;;;23.19;83.01
67015;BME280;1033;52.560;13.374;2022-08-19T08:14:48;100443.50;;;23.27;83.44
67015;BME280;1033;52.560;13.374;2022-08-19T08:17:25;100443.44;;;23.14;83.78
67015;BME280;1033;52.560;13.374;2022-08-19T08:20:15;100455.66;;;23.26;83.75
67015;BME280;1033;52.560;13.374;2022-08-19T08:22:47;100462.13;;;23.17;84.69
67015;BME280;1033;52.560;13.374;2022-08-19T08:25:35;100464.31;;;23.38;83.32
67015;BME280;1033;52.560;13.374;2022-08-19T08:28:05;100467.34;;;23.61;82.18
67015;BME280;1033;52.560;13.374;2022-08-19T08:30:45;100471.44;;;23.45;82.49
67015;BME280;1033;52.560;13.374;2022-08-19T08:33:19;100467.22;;;23.52;82.46
67015;BME280;1033;52.560;13.374;2022-08-19T08:36:02;100476.06;;;23.49;82.24
67015;BME280;1033;52.560;13.374;2022-08-19T08:38:34;100480.41;;;23.55;82.55
67015;BME280;1033;52.560;13.374;2022-08-19T08:41:18;100478.25;;;23.71;82.36
67015;BME280;1033;52.560;13.374;2022-08-19T08:43:52;100471.88;;;23.33;83.02
67015;BME280;1033;52.560;13.374;2022-08-19T08:46:29;100481.53;;;23.12;84.67
67015;BME280;1033;52.560;13.374;2022-08-19T08:49:07;100483.41;;;22.92;86.10
67015;BME280;1033;52.560;13.374;2022-08-19T08:51:48;100489.03;;;23.06;85.73
67015;BME280;1033;52.560;13.374;2022-08-19T08:54:33;100488.44;;;22.85;86.34
67015;BME280;1033;52.560;13.374;2022-08-19T08:57:11;100488.56;;;23.23;86.00
67015;BME280;1033;52.560;13.374;2022-08-19T08:59:43;100486.19;;;23.35;83.88
67015;BME280;1033;52.560;13.374;2022-08-19T09:02:18;100487.38;;;23.29;84.37
67015;BME280;1033;52.560;13.374;2022-08-19T09:04:47;100485.00;;;23.41;83.74
67015;BME280;1033;52.560;13.374;2022-08-19T09:07:40;100488.28;;;23.43;83.81
67015;BME280;1033;52.560;13.374;2022-08-19T09:10:27;100502.66;;;23.21;84.46
67015;BME280;1033;52.560;13.374;2022-08-19T09:13:11;100506.03;;;23.37;83.84
67015;BME280;1033;52.560;13.374;2022-08-19T09:15:47;100500.03;;;23.54;82.58
67015;BME280;1033;52.560;13.374;2022-08-19T09:18:17;100504.59;;;23.21;84.54
67015;BME280;1033;52.560;13.374;2022-08-19T09:20:47;100491.41;;;23.18;84.16
67015;BME280;1033;52.560;13.374;2022-08-19T09:23:16;100488.50;;;23.28;84.32
67015;BME280;1033;52.560;13.374;2022-08-19T09:25:55;100474.69;;;23.52;82.91
67015;BME280;1033;52.560;13.374;2022-08-19T09:28:24;100475.72;;;24.07;80.51
67015;BME280;1033;52.560;13.374;2022-08-19T09:30:55;100458.19;;;24.16;79.39
67015;BME280;1033;52.560;13.374;2022-08-19T09:33:24;100471.75;;;24.32;78.46
67015;BME280;1033;52.560;13.374;2022-08-19T09:36:04;100456.28;;;24.90;76.86
67015;BME280;1033;52.560;13.374;2022-08-19T09:38:36;100472.66;;;25.14;74.84
67015;BME280;1033;52.560;13.374;2022-08-19T09:41:16;100468.25;;;25.13;74.67
67015;BME280;1033;52.560;13.374;2022-08-19T09:43:48;100474.34;;;24.88;74.84
67015;BME280;1033;52.560;13.374;2022-08-19T09:46:20;100465.88;;;24.65;75.90
67015;BME280;1033;52.560;13.374;2022-08-19T09:48:50;100465.66;;;24.76;75.41
67015;BME280;1033;52.560;13.374;2022-08-19T09:51:24;100461.69;;;24.82;76.02
67015;BME280;1033;52.560;13.374;2022-08-19T09:54:01;100458.00;;;24.73;75.72
67015;BME280;1033;52.560;13.374;2022-08-19T09:56:33;100458.00;;;25.14;73.84
67015;BME280;1033;52.560;13.374;2022-08-19T09:59:03;100464.75;;;25.84;71.30
67015;BME280;1033;52.560;13.374;2022-08-19T10:01:32;100462.16;;;25.66;71.78
67015;BME280;1033;52.560;13.374;2022-08-19T10:04:02;100462.03;;;25.93;70.80
67015;BME280;1033;52.560;13.374;2022-08-19T10:06:49;100466.94;;;25.74;71.32
67015;BME280;1033;52.560;13.374;2022-08-19T10:09:21;100475.28;;;25.46;71.94
67015;BME280;1033;52.560;13.374;2022-08-19T10:12:04;100473.88;;;25.35;72.54
67015;BME280;1033;52.560;13.374;2022-08-19T10:14:37;100465.25;;;25.23;72.99
67015;BME280;1033;52.560;13.374;2022-08-19T10:17:07;100470.56;;;24.79;74.40
67015;BME280;1033;52.560;13.374;2022-08-19T10:19:48;100472.03;;;24.62;75.44
67015;BME280;1033;52.560;13.374;2022-08-19T10:22:23;100470.09;;;24.63;75.40
67015;BME280;1033;52.560;13.374;2022-08-19T10:24:53;100474.25;;;24.47;76.39
67015;BME280;1033;52.560;13.374;2022-08-19T10:27:23;100463.47;;;24.45;77.22
67015;BME280;1033;52.560;13.374;2022-08-19T10:29:53;100462.34;;;24.46;77.06
67015;BME280;1033;52.560;13.374;2022-08-19T10:32:25;100465.63;;;24.35;76.71
67015;BME280;1033;52.560;13.374;2022-08-19T10:35:01;100455.72;;;24.15;78.20
67015;BME280;1033;52.560;13.374;2022-08-19T10:37:32;100466.72;;;23.82;79.05
67015;BME280;1033;52.560;13.374;2022-08-19T10:40:03;100465.63;;;24.16;79.47
67015;BME280;1033;52.560;13.374;2022-08-19T10:42:35;100458.19;;;24.16;78.99
67015;BME280;1033;52.560;13.374;2022-08-19T10:45:06;100450.47;;;24.59;75.85
67015;BME280;1033;52.560;13.374;2022-08-19T10:47:37;100460.34;;;24.79;75.59
67015;BME280;1033;52.560;13.374;2022-08-19T10:50:07;100457.25;;;24.53;75.52
67015;BME280;1033;52.560;13.374;2022-08-19T10:52:55;100445.56;;;24.84;75.41
67015;BME280;1033;52.560;13.374;2022-08-19T10:55:24;100444.34;;;24.62;75.58
67015;BME280;1033;52.560;13.374;2022-08-19T10:58:14;100457.47;;;23.92;78.89
67015;BME280;1033;52.560;13.374;2022-08-19T11:00:51;100453.66;;;23.88;79.00
67015;BME280;1033;52.560;13.374;2022-08-19T11:03:21;100463.38;;;23.86;79.20
67015;BME280;1033;52.560;13.374;2022-08-19T11:05:58;100457.84;;;23.48;80.85
67015;BME280;1033;52.560;13.374;2022-08-19T11:08:27;100454.88;;;23.45;81.55
67015;BME280;1033;52.560;13.374;2022-08-19T11:11:01;100459.03;;;23.42;81.21
67015;BME280;1033;52.560;13.374;2022-08-19T11:13:38;100475.78;;;23.51;81.19
67015;BME280;1033;52.560;13.374;2022-08-19T11:16:12;100475.28;;;23.44;81.03
67015;BME280;1033;52.560;13.374;2022-08-19T11:18:44;100471.91;;;23.52;80.78
67015;BME280;1033;52.560;13.374;2022-08-19T11:21:17;100471.75;;;23.80;79.09
67015;BME280;1033;52.560;13.374;2022-08-19T11:23:50;100471.53;;;24.28;77.23
67015;BME280;1033;52.560;13.374;2022-08-19T11:26:21;100473.66;;;24.17;77.76
67015;BME280;1033;52.560;13.374;2022-08-19T11:28:52;100479.53;;;24.30;77.73
67015;BME280;1033;52.560;13.374;2022-08-19T11:31:25;100481.97;;;24.31;77.52
67015;BME280;1033;52.560;13.374;2022-08-19T11:33:57;100479.25;;;24.12;78.00
67015;BME280;1033;52.560;13.374;2022-08-19T11:36:27;100477.84;;;24.15;78.32
67015;BME280;1033;52.560;13.374;2022-08-19T11:38:57;100484.75;;;23.61;79.89
67015;BME280;1033;52.560;13.374;2022-08-19T11:41:26;100487.44;;;23.66;79.74
67015;BME280;1033;52.560;13.374;2022-08-19T11:43:57;100482.75;;;23.43;80.71
67015;BME280;1033;52.560;13.374;2022-08-19T11:46:27;100489.13;;;23.20;81.60
67015;BME280;1033;52.560;13.374;2022-08-19T11:48:57;100480.88;;;23.38;80.84
67015;BME280;1033;52.560;13.374;2022-08-19T11:51:28;100492.72;;;23.63;80.00
67015;BME280;1033;52.560;13.374;2022-08-19T11:53:59;100492.34;;;23.69;79.40
67015;BME280;1033;52.560;13.374;2022-08-19T11:56:29;100501.19;;;23.53;79.58
67015;BME280;1033;52.560;13.374;2022-08-19T11:59:01;100509.97;;;23.55;79.75
67015;BME280;1033;52.560;13.374;2022-08-19T12:01:30;100507.22;;;23.55;79.35
67015;BME280;1033;52.560;13.374;2022-08-19T12:04:00;100505.63;;;24.05;77.17
67015;BME280;1033;52.560;13.374;2022-08-19T12:06:32;100507.78;;;24.27;75.94
67015;BME280;1033;52.560;13.374;2022-08-19T12:09:06;100508.31;;;24.10;76.16
67015;BME280;1033;52.560;13.374;2022-08-19T12:11:36;100512.72;;;24.30;75.79
67015;BME280;1033;52.560;13.374;2022-08-19T12:14:11;100511.13;;;24.42;75.51
67015;BME280;1033;52.560;13.374;2022-08-19T12:16:45;100514.69;;;24.10;76.23
67015;BME280;1033;52.560;13.374;2022-08-19T12:19:19;100521.25;;;23.77;77.50
67015;BME280;1033;52.560;13.374;2022-08-19T12:21:49;100534.56;;;23.75;77.64
67015;BME280;1033;52.560;13.374;2022-08-19T12:24:19;100524.69;;;23.69;77.93
67015;BME280;1033;52.560;13.374;2022-08-19T12:26:51;100516.31;;;23.93;77.04
67015;BME280;1033;52.560;13.374;2022-08-19T12:29:22;100519.97;;;24.07;76.30
67015;BME280;1033;52.560;13.374;2022-08-19T12:31:57;100518.28;;;24.43;74.72
67015;BME280;1033;52.560;13.374;2022-08-19T12:34:32;100529.34;;;24.43;73.95
67015;BME280;1033;52.560;13.374;2022-08-19T12:37:04;100516.59;;;24.29;74.18
67015;BME280;1033;52.560;13.374;2022-08-19T12:39:40;100528.81;;;24.41;74.06
67015;BME280;1033;52.560;13.374;2022-08-19T12:42:12;100525.34;;;24.17;74.54
67015;BME280;1033;52.560;13.374;2022-08-19T12:44:43;100516.41;;;24.25;74.40
67015;BME280;1033;52.560;13.374;2022-08-19T12:47:14;100527.31;;;24.49;73.27
67015;BME280;1033;52.560;13.374;2022-08-19T12:49:46;100524.91;;;24.75;73.04
67015;BME280;1033;52.560;13.374;2022-08-19T12:52:24;100517.22;;;24.72;72.37
67015;BME280;1033;52.560;13.374;2022-08-19T12:54:56;100519.19;;;24.85;71.75
67015;BME280;1033;52.560;13.374;2022-08-19T12:57:27;100524.16;;;25.15;70.62
67015;BME280;1033;52.560;13.374;2022-08-19T13:00:07;100523.75;;;25.22;70.27
67015;BME280;1033;52.560;13.374;2022-08-19T13:02:39;100524.56;;;25.22;70.69
67015;BME280;1033;52.560;13.374;2022-08-19T13:05:12;100515.22;;;25.18;69.99
67015;BME280;1033;52.560;13.374;2022-08-19T13:07:42;100513.16;;;25.37;69.61
67015;BME280;1033;52.560;13.374;2022-08-19T13:10:16;100511.72;;;25.13;70.26
67015;BME280;1033;52.560;13.374;2022-08-19T13:12:48;100522.06;;;25.48;69.31
67015;BME280;1033;52.560;13.374;2022-08-19T13:15:21;100510.78;;;25.58;68.39
67015;BME280;1033;52.560;13.374;2022-08-19T13:17:52;100512.28;;;25.78;67.71